sensor_id;sensor_type;location;lat;lon;timestamp;temperature;humidity
26583;DHT22;14230;45.382;10.998;2023-04-12T00:01:18;13.90;99.90
26583;DHT22;14230;45.382;10.998;2023-04-12T00:03:45;13.90;99.90
26583;DHT22;14230;45.382;10.998;2023-04-12T00:06:17;13.90;99.90
26583;DHT22;14230;45.382;10.998;2023-04-12T00:08:44;13.80;99.90
26583;DHT22;14230;45.382;10.998;2023-04-12T00:11:13;13.80;99.90
26583;DHT22;14230;45.382;10.998;2023-04-12T00:13:40;13.80;99.90
26583;DHT22;14230;45.382;10.998;2023-04-12T00:16:08;13.80;99.90
26583;DHT22;14230;45.382;10.998;2023-04-12T00:18:36;13.80;99.90
26583;DHT22;14230;45.382;10.998;2023-04-12T00:21:03;13.70;99.90
26583;DHT22;14230;45.382;10.998;2023-04-12T00:23:31;13.70;99.90
26583;DHT22;14230;45.382;10.998;2023-04-12T00:25:59;13.80;99.90
26583;DHT22;14230;45.382;10.998;2023-04-12T00:28:27;13.70;99.90
26583;DHT22;14230;45.382;10.998;2023-04-12T00:30:54;13.70;99.90
26583;DHT22;14230;45.382;10.998;2023-04-12T00:33:22;13.70;99.90
26583;DHT22;14230;45.382;10.998;2023-04-12T00:35:50;13.70;99.90
26583;DHT22;14230;45.382;10.998;2023-04-12T00:38:17;13.70;99.90
26583;DHT22;14230;45.382;10.998;2023-04-12T00:40:45;13.80;99.90
26583;DHT22;14230;45.382;10.998;2023-04-12T00:43:12;13.80;99.90
26583;DHT22;14230;45.382;10.998;2023-04-12T00:45:46;13.80;99.90
26583;DHT22;14230;45.382;10.998;2023-04-12T00:48:14;13.70;99.90
26583;DHT22;14230;45.382;10.998;2023-04-12T00:50:45;13.70;99.90
26583;DHT22;14230;45.382;10.998;2023-04-12T00:53:13;13.70;99.90
26583;DHT22;14230;45.382;10.998;2023-04-12T00:55:44;13.70;99.90
26583;DHT22;14230;45.382;10.998;2023-04-12T00:58:13;13.70;99.90
26583;DHT22;14230;45.382;10.998;2023-04-12T01:00:41;13.70;99.90
26583;DHT22;14230;45.382;10.998;2023-04-12T01:03:11;13.70;99.90
26583;DHT22;14230;45.382;10.998;2023-04-12T01:05:49;13.70;99.90
26583;DHT22;14230;45.382;10.998;2023-04-12T01:11:33;13.60;99.90
26583;DHT22;14230;45.382;10.998;2023-04-12T01:14:42;13.60;99.90
26583;DHT22;14230;45.382;10.998;2023-04-12T01:17:20;13.60;99.90
26583;DHT22;14230;45.382;10.998;2023-04-12T01:28:10;13.50;99.90
26583;DHT22;14230;45.382;10.998;2023-04-12T01:30:40;13.50;99.90
26583;DHT22;14230;45.382;10.998;2023-04-12T01:33:10;13.60;99.90
26583;DHT22;14230;45.382;10.998;2023-04-12T01:35:39;13.50;99.90
26583;DHT22;14230;45.382;10.998;2023-04-12T01:38:08;13.60;99.90
26583;DHT22;14230;45.382;10.998;2023-04-12T01:40:37;13.60;99.90
26583;DHT22;14230;45.382;10.998;2023-04-12T01:43:11;13.60;99.90
26583;DHT22;14230;45.382;10.998;2023-04-12T01:45:39;13.60;99.90
26583;DHT22;14230;45.382;10.998;2023-04-12T01:48:08;13.60;99.90
26583;DHT22;14230;45.382;10.998;2023-04-12T01:53:31;13.50;99.90
26583;DHT22;14230;45.382;10.998;2023-04-12T01:56:05;13.60;99.90
26583;DHT22;14230;45.382;10.998;2023-04-12T01:58:37;13.60;99.90
26583;DHT22;14230;45.382;10.998;2023-04-12T02:01:06;13.70;99.90
26583;DHT22;14230;45.382;10.998;2023-04-12T02:03:39;13.70;99.90
26583;DHT22;14230;45.382;10.998;2023-04-12T02:06:09;13.70;99.90
26583;DHT22;14230;45.382;10.998;2023-04-12T02:08:37;13.70;99.90
26583;DHT22;14230;45.382;10.998;2023-04-12T02:11:09;13.70;99.90
26583;DHT22;14230;45.382;10.998;2023-04-12T02:13:36;13.80;99.90
26583;DHT22;14230;45.382;10.998;2023-04-12T02:16:04;13.80;99.90
26583;DHT22;14230;45.382;10.998;2023-04-12T02:18:34;13.80;99.90
26583;DHT22;14230;45.382;10.998;2023-04-12T02:21:05;13.80;99.90
26583;DHT22;14230;45.382;10.998;2023-04-12T02:23:33;13.80;99.90
26583;DHT22;14230;45.382;10.998;2023-04-12T02:26:01;13.80;99.90
26583;DHT22;14230;45.382;10.998;2023-04-12T02:28:31;13.80;99.90
26583;DHT22;14230;45.382;10.998;2023-04-12T02:31:01;13.80;99.90
26583;DHT22;14230;45.382;10.998;2023-04-12T02:33:31;13.80;99.90
26583;DHT22;14230;45.382;10.998;2023-04-12T02:36:00;13.80;99.90
26583;DHT22;14230;45.382;10.998;2023-04-12T02:38:54;13.80;99.90
26583;DHT22;14230;45.382;10.998;2023-04-12T02:41:23;13.80;99.90
26583;DHT22;14230;45.382;10.998;2023-04-12T02:43:52;13.80;99.90
26583;DHT22;14230;45.382;10.998;2023-04-12T02:46:23;13.70;99.90
26583;DHT22;14230;45.382;10.998;2023-04-12T02:48:55;13.80;99.90
26583;DHT22;14230;45.382;10.998;2023-04-12T02:51:31;13.80;99.90
26583;DHT22;14230;45.382;10.998;2023-04-12T02:54:00;13.80;99.90
26583;DHT22;14230;45.382;10.998;2023-04-12T02:56:36;13.90;99.90
26583;DHT22;14230;45.382;10.998;2023-04-12T02:59:18;13.90;99.90
26583;DHT22;14230;45.382;10.998;2023-04-12T03:02:03;13.90;99.90
26583;DHT22;14230;45.382;10.998;2023-04-12T03:04:32;13.90;99.90
26583;DHT22;14230;45.382;10.998;2023-04-12T03:07:01;13.90;99.90
26583;DHT22;14230;45.382;10.998;2023-04-12T03:09:38;13.80;99.90
26583;DHT22;14230;45.382;10.998;2023-04-12T03:12:09;13.70;99.90
26583;DHT22;14230;45.382;10.998;2023-04-12T03:14:43;13.70;99.90
26583;DHT22;14230;45.382;10.998;2023-04-12T03:17:11;13.60;99.90
26583;DHT22;14230;45.382;10.998;2023-04-12T03:19:41;13.50;99.90
26583;DHT22;14230;45.382;10.998;2023-04-12T03:22:10;13.50;99.90
26583;DHT22;14230;45.382;10.998;2023-04-12T03:24:41;13.50;99.90
26583;DHT22;14230;45.382;10.998;2023-04-12T03:27:13;13.50;99.90
26583;DHT22;14230;45.382;10.998;2023-04-12T03:29:40;13.50;99.90
26583;DHT22;14230;45.382;10.998;2023-04-12T03:32:08;13.50;99.90
26583;DHT22;14230;45.382;10.998;2023-04-12T03:34:36;13.50;99.90
26583;DHT22;14230;45.382;10.998;2023-04-12T03:37:11;13.50;99.90
26583;DHT22;14230;45.382;10.998;2023-04-12T03:39:41;13.40;99.90
26583;DHT22;14230;45.382;10.998;2023-04-12T03:42:18;13.40;99.90
26583;DHT22;14230;45.382;10.998;2023-04-12T03:45:04;13.40;99.90
26583;DHT22;14230;45.382;10.998;2023-04-12T03:47:32;13.30;99.90
26583;DHT22;14230;45.382;10.998;2023-04-12T03:50:03;13.30;99.90
26583;DHT22;14230;45.382;10.998;2023-04-12T03:52:42;13.30;99.90
26583;DHT22;14230;45.382;10.998;2023-04-12T03:55:09;13.20;99.90
26583;DHT22;14230;45.382;10.998;2023-04-12T03:57:38;13.10;99.90
26583;DHT22;14230;45.382;10.998;2023-04-12T04:00:07;13.00;99.90
26583;DHT22;14230;45.382;10.998;2023-04-12T04:02:53;12.90;99.90
26583;DHT22;14230;45.382;10.998;2023-04-12T04:05:21;12.80;99.90
26583;DHT22;14230;45.382;10.998;2023-04-12T04:07:49;12.80;99.90
26583;DHT22;14230;45.382;10.998;2023-04-12T04:10:17;12.70;99.90
26583;DHT22;14230;45.382;10.998;2023-04-12T04:12:45;12.70;99.90
26583;DHT22;14230;45.382;10.998;2023-04-12T04:15:13;12.70;99.90
26583;DHT22;14230;45.382;10.998;2023-04-12T04:17:41;12.70;99.90
26583;DHT22;14230;45.382;10.998;2023-04-12T04:20:11;12.70;99.90
26583;DHT22;14230;45.382;10.998;2023-04-12T04:22:46;12.70;99.90
26583;DHT22;14230;45.382;10.998;2023-04-12T04:25:15;12.70;99.90
26583;DHT22;14230;45.382;10.998;2023-04-12T04:27:48;12.70;99.90
26583;DHT22;14230;45.382;10.998;2023-04-12T04:30:18;12.70;99.90
26583;DHT22;14230;45.382;10.998;2023-04-12T04:32:47;12.70;99.90
26583;DHT22;14230;45.382;10.998;2023-04-12T04:35:18;12.70;99.90
26583;DHT22;14230;45.382;10.998;2023-04-12T04:38:12;12.70;99.90
26583;DHT22;14230;45.382;10.998;2023-04-12T04:40:42;12.70;99.90
26583;DHT22;14230;45.382;10.998;2023-04-12T04:43:11;12.70;99.90
26583;DHT22;14230;45.382;10.998;2023-04-12T04:45:41;12.70;99.90
26583;DHT22;14230;45.382;10.998;2023-04-12T04:48:09;12.80;99.90
26583;DHT22;14230;45.382;10.998;2023-04-12T04:50:36;12.70;99.90
26583;DHT22;14230;45.382;10.998;2023-04-12T04:53:04;12.80;99.90
26583;DHT22;14230;45.382;10.998;2023-04-12T04:55:33;12.80;99.90
26583;DHT22;14230;45.382;10.998;2023-04-12T04:58:00;12.80;99.90
26583;DHT22;14230;45.382;10.998;2023-04-12T05:00:27;12.80;99.90
26583;DHT22;14230;45.382;10.998;2023-04-12T05:02:58;12.80;99.90
26583;DHT22;14230;45.382;10.998;2023-04-12T05:05:28;12.90;99.90
26583;DHT22;14230;45.382;10.998;2023-04-12T05:08:03;12.90;99.90
26583;DHT22;14230;45.382;10.998;2023-04-12T05:10:33;12.90;99.90
26583;DHT22;14230;45.382;10.998;2023-04-12T05:13:02;13.00;99.90
26583;DHT22;14230;45.382;10.998;2023-04-12T05:15:30;13.00;99.90
26583;DHT22;14230;45.382;10.998;2023-04-12T05:17:59;12.90;99.90
26583;DHT22;14230;45.382;10.998;2023-04-12T05:20:27;12.90;99.90
26583;DHT22;14230;45.382;10.998;2023-04-12T05:22:54;13.00;99.90
26583;DHT22;14230;45.382;10.998;2023-04-12T05:25:22;13.00;99.90
26583;DHT22;14230;45.382;10.998;2023-04-12T05:28:01;13.10;99.90
26583;DHT22;14230;45.382;10.998;2023-04-12T05:30:28;13.10;99.90
26583;DHT22;14230;45.382;10.998;2023-04-12T05:32:56;13.10;99.90
26583;DHT22;14230;45.382;10.998;2023-04-12T05:35:24;13.10;99.90
26583;DHT22;14230;45.382;10.998;2023-04-12T05:37:57;13.20;99.90
26583;DHT22;14230;45.382;10.998;2023-04-12T05:40:25;13.20;99.90
26583;DHT22;14230;45.382;10.998;2023-04-12T05:42:53;13.30;99.90
26583;DHT22;14230;45.382;10.998;2023-04-12T05:45:21;13.40;99.90
26583;DHT22;14230;45.382;10.998;2023-04-12T05:47:48;13.50;99.90
26583;DHT22;14230;45.382;10.998;2023-04-12T05:50:16;13.60;99.90
26583;DHT22;14230;45.382;10.998;2023-04-12T05:52:43;13.70;99.90
26583;DHT22;14230;45.382;10.998;2023-04-12T05:55:11;13.80;99.90
26583;DHT22;14230;45.382;10.998;2023-04-12T05:57:42;13.80;99.90
26583;DHT22;14230;45.382;10.998;2023-04-12T06:00:12;13.90;99.90
26583;DHT22;14230;45.382;10.998;2023-04-12T06:02:44;14.00;99.90
26583;DHT22;14230;45.382;10.998;2023-04-12T06:05:13;13.90;99.90
26583;DHT22;14230;45.382;10.998;2023-04-12T06:07:41;13.80;99.90
26583;DHT22;14230;45.382;10.998;2023-04-12T06:10:16;13.80;99.90
26583;DHT22;14230;45.382;10.998;2023-04-12T06:12:48;13.90;99.90
26583;DHT22;14230;45.382;10.998;2023-04-12T06:15:15;14.10;99.90
26583;DHT22;14230;45.382;10.998;2023-04-12T06:17:43;14.30;99.90
26583;DHT22;14230;45.382;10.998;2023-04-12T06:20:11;14.40;99.90
26583;DHT22;14230;45.382;10.998;2023-04-12T06:22:39;14.50;99.90
26583;DHT22;14230;45.382;10.998;2023-04-12T06:25:07;14.50;99.90
26583;DHT22;14230;45.382;10.998;2023-04-12T06:27:35;14.40;99.90
26583;DHT22;14230;45.382;10.998;2023-04-12T06:30:02;14.40;99.90
26583;DHT22;14230;45.382;10.998;2023-04-12T06:32:33;14.40;99.90
26583;DHT22;14230;45.382;10.998;2023-04-12T06:35:01;14.50;99.90
26583;DHT22;14230;45.382;10.998;2023-04-12T06:37:28;14.60;99.90
26583;DHT22;14230;45.382;10.998;2023-04-12T06:39:56;14.70;99.90
26583;DHT22;14230;45.382;10.998;2023-04-12T06:42:23;14.70;99.90
26583;DHT22;14230;45.382;10.998;2023-04-12T06:44:50;14.70;99.90
26583;DHT22;14230;45.382;10.998;2023-04-12T06:47:19;14.70;99.90
26583;DHT22;14230;45.382;10.998;2023-04-12T06:49:47;14.70;99.90
26583;DHT22;14230;45.382;10.998;2023-04-12T06:52:14;14.80;99.90
26583;DHT22;14230;45.382;10.998;2023-04-12T06:54:42;14.70;99.90
26583;DHT22;14230;45.382;10.998;2023-04-12T06:57:10;14.70;99.90
26583;DHT22;14230;45.382;10.998;2023-04-12T06:59:38;14.60;99.90
26583;DHT22;14230;45.382;10.998;2023-04-12T07:02:06;14.50;99.90
26583;DHT22;14230;45.382;10.998;2023-04-12T07:04:34;14.40;99.90
26583;DHT22;14230;45.382;10.998;2023-04-12T07:07:01;14.40;99.90
26583;DHT22;14230;45.382;10.998;2023-04-12T07:09:31;14.40;99.90
26583;DHT22;14230;45.382;10.998;2023-04-12T07:11:59;14.50;99.90
26583;DHT22;14230;45.382;10.998;2023-04-12T07:14:27;14.50;99.90
26583;DHT22;14230;45.382;10.998;2023-04-12T07:16:54;14.50;99.90
26583;DHT22;14230;45.382;10.998;2023-04-12T07:19:22;14.50;99.90
26583;DHT22;14230;45.382;10.998;2023-04-12T07:21:49;14.60;99.90
26583;DHT22;14230;45.382;10.998;2023-04-12T07:24:17;14.50;99.90
26583;DHT22;14230;45.382;10.998;2023-04-12T07:26:44;14.50;99.90
26583;DHT22;14230;45.382;10.998;2023-04-12T07:29:12;14.40;99.90
26583;DHT22;14230;45.382;10.998;2023-04-12T07:31:40;14.40;99.90
26583;DHT22;14230;45.382;10.998;2023-04-12T07:34:07;14.30;99.90
26583;DHT22;14230;45.382;10.998;2023-04-12T07:36:35;14.40;99.90
26583;DHT22;14230;45.382;10.998;2023-04-12T07:39:03;14.40;99.90
26583;DHT22;14230;45.382;10.998;2023-04-12T07:41:30;14.50;99.90
26583;DHT22;14230;45.382;10.998;2023-04-12T07:43:57;14.40;99.90
26583;DHT22;14230;45.382;10.998;2023-04-12T07:46:25;14.50;99.90
26583;DHT22;14230;45.382;10.998;2023-04-12T07:48:53;14.50;99.90
26583;DHT22;14230;45.382;10.998;2023-04-12T07:51:20;14.50;99.90
26583;DHT22;14230;45.382;10.998;2023-04-12T07:53:48;14.60;99.90
26583;DHT22;14230;45.382;10.998;2023-04-12T07:56:15;14.80;99.90
26583;DHT22;14230;45.382;10.998;2023-04-12T07:58:43;15.00;99.90
26583;DHT22;14230;45.382;10.998;2023-04-12T08:01:11;15.10;99.90
26583;DHT22;14230;45.382;10.998;2023-04-12T08:03:39;15.10;99.90
26583;DHT22;14230;45.382;10.998;2023-04-12T08:06:07;15.20;99.90
26583;DHT22;14230;45.382;10.998;2023-04-12T08:08:35;15.30;99.90
26583;DHT22;14230;45.382;10.998;2023-04-12T08:11:03;15.60;99.90
26583;DHT22;14230;45.382;10.998;2023-04-12T08:13:33;15.60;99.70
26583;DHT22;14230;45.382;10.998;2023-04-12T08:16:01;15.60;99.50
26583;DHT22;14230;45.382;10.998;2023-04-12T08:18:29;15.60;99.40
26583;DHT22;14230;45.382;10.998;2023-04-12T08:20:57;15.50;99.10
26583;DHT22;14230;45.382;10.998;2023-04-12T08:23:24;15.50;99.20
26583;DHT22;14230;45.382;10.998;2023-04-12T08:25:52;15.50;99.20
26583;DHT22;14230;45.382;10.998;2023-04-12T08:28:29;15.40;97.90
26583;DHT22;14230;45.382;10.998;2023-04-12T08:30:57;15.30;98.00
26583;DHT22;14230;45.382;10.998;2023-04-12T08:33:25;15.20;98.50
26583;DHT22;14230;45.382;10.998;2023-04-12T08:35:54;15.30;98.90
26583;DHT22;14230;45.382;10.998;2023-04-12T08:38:22;15.40;99.10
26583;DHT22;14230;45.382;10.998;2023-04-12T08:41:08;15.30;98.60
26583;DHT22;14230;45.382;10.998;2023-04-12T08:43:37;15.30;99.30
26583;DHT22;14230;45.382;10.998;2023-04-12T08:46:07;15.30;99.30
26583;DHT22;14230;45.382;10.998;2023-04-12T08:48:35;15.30;99.00
26583;DHT22;14230;45.382;10.998;2023-04-12T08:51:04;15.40;98.90
26583;DHT22;14230;45.382;10.998;2023-04-12T08:53:32;15.50;98.60
26583;DHT22;14230;45.382;10.998;2023-04-12T08:56:02;15.60;97.80
26583;DHT22;14230;45.382;10.998;2023-04-12T08:58:29;15.60;96.90
26583;DHT22;14230;45.382;10.998;2023-04-12T09:00:58;15.60;95.60
26583;DHT22;14230;45.382;10.998;2023-04-12T09:03:30;15.60;95.30
26583;DHT22;14230;45.382;10.998;2023-04-12T09:06:02;15.50;95.70
26583;DHT22;14230;45.382;10.998;2023-04-12T09:08:29;15.50;95.10
26583;DHT22;14230;45.382;10.998;2023-04-12T09:10:57;15.60;94.90
26583;DHT22;14230;45.382;10.998;2023-04-12T09:13:32;15.80;94.90
26583;DHT22;14230;45.382;10.998;2023-04-12T09:16:03;15.70;93.40
26583;DHT22;14230;45.382;10.998;2023-04-12T09:18:47;15.60;92.60
26583;DHT22;14230;45.382;10.998;2023-04-12T09:21:14;15.60;92.50
26583;DHT22;14230;45.382;10.998;2023-04-12T09:23:42;15.70;93.80
26583;DHT22;14230;45.382;10.998;2023-04-12T09:26:26;15.70;93.80
26583;DHT22;14230;45.382;10.998;2023-04-12T09:28:54;15.70;93.10
26583;DHT22;14230;45.382;10.998;2023-04-12T09:31:22;15.80;92.50
26583;DHT22;14230;45.382;10.998;2023-04-12T09:33:50;16.00;93.60
26583;DHT22;14230;45.382;10.998;2023-04-12T09:36:17;16.40;93.40
26583;DHT22;14230;45.382;10.998;2023-04-12T09:38:58;16.70;91.80
26583;DHT22;14230;45.382;10.998;2023-04-12T09:41:27;16.90;90.40
26583;DHT22;14230;45.382;10.998;2023-04-12T09:44:01;17.00;90.30
26583;DHT22;14230;45.382;10.998;2023-04-12T09:46:29;16.90;91.10
26583;DHT22;14230;45.382;10.998;2023-04-12T09:48:59;17.00;90.30
26583;DHT22;14230;45.382;10.998;2023-04-12T09:51:28;17.00;88.90
26583;DHT22;14230;45.382;10.998;2023-04-12T09:54:00;16.90;87.60
26583;DHT22;14230;45.382;10.998;2023-04-12T09:56:32;16.70;88.80
26583;DHT22;14230;45.382;10.998;2023-04-12T09:59:05;16.60;88.80
26583;DHT22;14230;45.382;10.998;2023-04-12T10:01:39;16.50;88.10
26583;DHT22;14230;45.382;10.998;2023-04-12T10:04:08;16.50;90.00
26583;DHT22;14230;45.382;10.998;2023-04-12T10:06:37;16.70;86.80
26583;DHT22;14230;45.382;10.998;2023-04-12T10:09:06;16.70;86.30
26583;DHT22;14230;45.382;10.998;2023-04-12T10:11:35;16.60;85.30
26583;DHT22;14230;45.382;10.998;2023-04-12T10:14:07;16.60;87.30
26583;DHT22;14230;45.382;10.998;2023-04-12T10:16:36;16.50;86.70
26583;DHT22;14230;45.382;10.998;2023-04-12T10:19:06;16.60;86.30
26583;DHT22;14230;45.382;10.998;2023-04-12T10:21:35;16.60;85.40
26583;DHT22;14230;45.382;10.998;2023-04-12T10:24:04;16.60;83.30
26583;DHT22;14230;45.382;10.998;2023-04-12T10:26:33;16.70;83.80
26583;DHT22;14230;45.382;10.998;2023-04-12T10:31:55;16.50;86.00
26583;DHT22;14230;45.382;10.998;2023-04-12T10:34:28;16.40;86.90
26583;DHT22;14230;45.382;10.998;2023-04-12T10:36:59;16.50;87.20
26583;DHT22;14230;45.382;10.998;2023-04-12T10:39:53;16.70;87.60
26583;DHT22;14230;45.382;10.998;2023-04-12T10:42:28;16.70;88.00
26583;DHT22;14230;45.382;10.998;2023-04-12T10:47:57;16.70;89.80
26583;DHT22;14230;45.382;10.998;2023-04-12T10:50:34;16.80;90.50
26583;DHT22;14230;45.382;10.998;2023-04-12T10:53:21;16.90;90.20
26583;DHT22;14230;45.382;10.998;2023-04-12T10:55:51;16.70;90.50
26583;DHT22;14230;45.382;10.998;2023-04-12T11:01:14;16.60;90.80
26583;DHT22;14230;45.382;10.998;2023-04-12T11:04:18;16.60;90.70
26583;DHT22;14230;45.382;10.998;2023-04-12T11:07:09;16.50;91.60
26583;DHT22;14230;45.382;10.998;2023-04-12T11:10:12;16.40;91.40
26583;DHT22;14230;45.382;10.998;2023-04-12T11:12:48;16.40;91.90
26583;DHT22;14230;45.382;10.998;2023-04-12T11:15:17;16.30;91.40
26583;DHT22;14230;45.382;10.998;2023-04-12T11:17:56;16.30;91.70
26583;DHT22;14230;45.382;10.998;2023-04-12T11:20:25;16.40;92.10
26583;DHT22;14230;45.382;10.998;2023-04-12T11:22:54;16.40;92.00
26583;DHT22;14230;45.382;10.998;2023-04-12T11:25:24;16.40;92.30
26583;DHT22;14230;45.382;10.998;2023-04-12T11:27:53;16.50;92.20
26583;DHT22;14230;45.382;10.998;2023-04-12T11:30:28;16.60;92.10
26583;DHT22;14230;45.382;10.998;2023-04-12T11:32:56;16.70;91.50
26583;DHT22;14230;45.382;10.998;2023-04-12T11:35:27;16.70;91.70
26583;DHT22;14230;45.382;10.998;2023-04-12T11:37:57;16.80;91.60
26583;DHT22;14230;45.382;10.998;2023-04-12T11:40:25;16.90;91.70
26583;DHT22;14230;45.382;10.998;2023-04-12T11:42:53;16.90;91.50
26583;DHT22;14230;45.382;10.998;2023-04-12T11:45:27;17.00;91.70
26583;DHT22;14230;45.382;10.998;2023-04-12T11:47:55;17.20;91.80
26583;DHT22;14230;45.382;10.998;2023-04-12T11:50:29;17.30;92.30
26583;DHT22;14230;45.382;10.998;2023-04-12T11:53:11;17.30;92.00
26583;DHT22;14230;45.382;10.998;2023-04-12T11:55:39;17.40;91.90
26583;DHT22;14230;45.382;10.998;2023-04-12T11:58:07;17.50;92.00
26583;DHT22;14230;45.382;10.998;2023-04-12T12:00:35;17.60;92.10
26583;DHT22;14230;45.382;10.998;2023-04-12T12:03:03;17.70;91.50
26583;DHT22;14230;45.382;10.998;2023-04-12T12:05:38;17.90;91.60
26583;DHT22;14230;45.382;10.998;2023-04-12T12:08:08;18.00;91.30
26583;DHT22;14230;45.382;10.998;2023-04-12T12:10:37;18.00;90.90
26583;DHT22;14230;45.382;10.998;2023-04-12T12:13:26;18.10;90.40
26583;DHT22;14230;45.382;10.998;2023-04-12T12:15:53;18.30;90.70
26583;DHT22;14230;45.382;10.998;2023-04-12T12:18:24;18.20;91.10
26583;DHT22;14230;45.382;10.998;2023-04-12T12:20:53;18.00;91.10
26583;DHT22;14230;45.382;10.998;2023-04-12T12:23:32;18.20;91.00
26583;DHT22;14230;45.382;10.998;2023-04-12T12:26:00;17.90;91.40
26583;DHT22;14230;45.382;10.998;2023-04-12T12:28:52;17.50;91.30
26583;DHT22;14230;45.382;10.998;2023-04-12T12:31:25;17.50;92.30
26583;DHT22;14230;45.382;10.998;2023-04-12T12:33:57;17.60;91.80
26583;DHT22;14230;45.382;10.998;2023-04-12T12:36:32;17.90;91.40
26583;DHT22;14230;45.382;10.998;2023-04-12T12:41:33;18.20;91.70
26583;DHT22;14230;45.382;10.998;2023-04-12T12:44:01;18.30;92.00
26583;DHT22;14230;45.382;10.998;2023-04-12T12:46:29;18.30;91.70
26583;DHT22;14230;45.382;10.998;2023-04-12T12:49:17;18.30;92.40
26583;DHT22;14230;45.382;10.998;2023-04-12T12:51:45;18.50;91.60
26583;DHT22;14230;45.382;10.998;2023-04-12T12:54:15;18.50;91.40
26583;DHT22;14230;45.382;10.998;2023-04-12T12:57:03;18.50;91.50
26583;DHT22;14230;45.382;10.998;2023-04-12T12:59:30;18.30;91.10
26583;DHT22;14230;45.382;10.998;2023-04-12T13:01:58;18.30;92.10
26583;DHT22;14230;45.382;10.998;2023-04-12T13:04:26;18.40;91.70
26583;DHT22;14230;45.382;10.998;2023-04-12T13:06:54;18.50;91.60
26583;DHT22;14230;45.382;10.998;2023-04-12T13:09:23;18.40;91.50
26583;DHT22;14230;45.382;10.998;2023-04-12T13:11:51;18.50;91.90
26583;DHT22;14230;45.382;10.998;2023-04-12T13:14:18;18.30;91.70
26583;DHT22;14230;45.382;10.998;2023-04-12T13:16:47;18.20;92.00
26583;DHT22;14230;45.382;10.998;2023-04-12T13:19:15;18.10;92.10
26583;DHT22;14230;45.382;10.998;2023-04-12T13:21:43;18.00;92.50
26583;DHT22;14230;45.382;10.998;2023-04-12T13:24:10;18.00;92.40
26583;DHT22;14230;45.382;10.998;2023-04-12T13:26:38;17.90;92.10
26583;DHT22;14230;45.382;10.998;2023-04-12T13:29:06;17.70;92.20
26583;DHT22;14230;45.382;10.998;2023-04-12T13:31:34;17.70;93.00
26583;DHT22;14230;45.382;10.998;2023-04-12T13:34:02;17.60;92.60
26583;DHT22;14230;45.382;10.998;2023-04-12T13:36:29;17.50;92.80
26583;DHT22;14230;45.382;10.998;2023-04-12T13:38:57;17.60;93.30
26583;DHT22;14230;45.382;10.998;2023-04-12T13:41:25;17.50;92.90
26583;DHT22;14230;45.382;10.998;2023-04-12T13:43:52;17.40;93.10
26583;DHT22;14230;45.382;10.998;2023-04-12T13:46:20;17.30;93.10
26583;DHT22;14230;45.382;10.998;2023-04-12T13:48:47;17.30;93.30
26583;DHT22;14230;45.382;10.998;2023-04-12T13:51:16;17.30;93.50
26583;DHT22;14230;45.382;10.998;2023-04-12T13:53:44;17.20;93.20
26583;DHT22;14230;45.382;10.998;2023-04-12T13:56:11;17.20;93.60
26583;DHT22;14230;45.382;10.998;2023-04-12T13:58:39;17.10;93.50
26583;DHT22;14230;45.382;10.998;2023-04-12T14:01:07;17.10;93.40
26583;DHT22;14230;45.382;10.998;2023-04-12T14:03:36;17.00;93.10
26583;DHT22;14230;45.382;10.998;2023-04-12T14:06:04;16.90;93.20
26583;DHT22;14230;45.382;10.998;2023-04-12T14:08:32;16.90;93.30
26583;DHT22;14230;45.382;10.998;2023-04-12T14:11:01;16.90;93.50
26583;DHT22;14230;45.382;10.998;2023-04-12T14:13:31;16.80;93.10
26583;DHT22;14230;45.382;10.998;2023-04-12T14:15:58;16.80;93.60
26583;DHT22;14230;45.382;10.998;2023-04-12T14:18:26;16.70;94.10
26583;DHT22;14230;45.382;10.998;2023-04-12T14:20:53;16.70;93.90
26583;DHT22;14230;45.382;10.998;2023-04-12T14:23:24;16.70;93.30
26583;DHT22;14230;45.382;10.998;2023-04-12T14:25:52;16.60;93.60
26583;DHT22;14230;45.382;10.998;2023-04-12T14:28:20;16.70;93.40
26583;DHT22;14230;45.382;10.998;2023-04-12T14:30:56;16.70;93.60
26583;DHT22;14230;45.382;10.998;2023-04-12T14:33:24;16.70;93.50
26583;DHT22;14230;45.382;10.998;2023-04-12T14:35:52;16.60;93.20
26583;DHT22;14230;45.382;10.998;2023-04-12T14:38:19;16.60;93.50
26583;DHT22;14230;45.382;10.998;2023-04-12T14:40:48;16.60;93.50
26583;DHT22;14230;45.382;10.998;2023-04-12T14:43:16;16.50;93.40
26583;DHT22;14230;45.382;10.998;2023-04-12T14:45:43;16.50;93.30
26583;DHT22;14230;45.382;10.998;2023-04-12T14:48:11;16.50;93.40
26583;DHT22;14230;45.382;10.998;2023-04-12T14:50:39;16.50;94.10
26583;DHT22;14230;45.382;10.998;2023-04-12T14:53:06;16.60;94.00
26583;DHT22;14230;45.382;10.998;2023-04-12T14:55:36;16.60;93.60
26583;DHT22;14230;45.382;10.998;2023-04-12T14:58:03;16.60;93.60
26583;DHT22;14230;45.382;10.998;2023-04-12T15:00:32;16.60;93.60
26583;DHT22;14230;45.382;10.998;2023-04-12T15:03:00;16.70;94.10
26583;DHT22;14230;45.382;10.998;2023-04-12T15:05:27;16.60;93.80
26583;DHT22;14230;45.382;10.998;2023-04-12T15:07:55;16.60;93.90
26583;DHT22;14230;45.382;10.998;2023-04-12T15:10:23;16.60;94.10
26583;DHT22;14230;45.382;10.998;2023-04-12T15:12:51;16.50;94.00
26583;DHT22;14230;45.382;10.998;2023-04-12T15:15:19;16.50;94.00
26583;DHT22;14230;45.382;10.998;2023-04-12T15:17:46;16.50;94.30
26583;DHT22;14230;45.382;10.998;2023-04-12T15:20:14;16.60;94.30
26583;DHT22;14230;45.382;10.998;2023-04-12T15:22:43;16.70;94.00
26583;DHT22;14230;45.382;10.998;2023-04-12T15:25:10;16.70;94.00
26583;DHT22;14230;45.382;10.998;2023-04-12T15:27:38;16.60;94.30
26583;DHT22;14230;45.382;10.998;2023-04-12T15:30:06;16.60;94.10
26583;DHT22;14230;45.382;10.998;2023-04-12T15:32:38;16.60;93.80
26583;DHT22;14230;45.382;10.998;2023-04-12T15:35:09;16.60;93.30
26583;DHT22;14230;45.382;10.998;2023-04-12T15:37:52;16.50;93.70
26583;DHT22;14230;45.382;10.998;2023-04-12T15:40:22;16.50;93.80
26583;DHT22;14230;45.382;10.998;2023-04-12T15:42:50;16.50;93.70
26583;DHT22;14230;45.382;10.998;2023-04-12T15:45:18;16.40;93.50
26583;DHT22;14230;45.382;10.998;2023-04-12T15:47:45;16.30;93.70
26583;DHT22;14230;45.382;10.998;2023-04-12T15:50:13;16.30;93.90
26583;DHT22;14230;45.382;10.998;2023-04-12T15:52:40;16.20;94.30
26583;DHT22;14230;45.382;10.998;2023-04-12T15:55:10;16.20;94.70
26583;DHT22;14230;45.382;10.998;2023-04-12T15:57:38;16.10;94.90
26583;DHT22;14230;45.382;10.998;2023-04-12T16:00:06;16.10;94.90